CheckWX is a tool to help pilots better visualize weather data.  It is not intended as a substitute for an official pre-flight weather briefing.

16:18:15 UTC

PAPG TAF
Petersburg James A Johnson Airport
Petersburg, Alaska, USA
PAPG 151733Z 1518/1618 06007KT 4SM -RA BR BKN005 OVC015 TEMPO 1518/1521 2SM RA FM160000 09006KT 4SM -RA BR SCT005 OVC010 FM161500 VRB02KT 6SM -RA OVC020 AMD LTD TO CLD VIS AND WIND 1606/1615

Jul-15@
18:00 UTC

Jul-15 @ 18:00 UTC

Jul-16@
00:00 UTC

Jul-16 @ 00:00 UTC

TAF PAPG 151733Z 1518/1618 06007KT 4SM -RA BR BKN005 OVC015

Expired

Wind
  • 060° at 7 KTS
Conditions
Light Rain, Mist
Cloud Levels
  • Broken at 500' AGL
  • Overcast at 1,500' AGL

Jul-15@
18:00 UTC

Jul-15 @ 18:00 UTC

Jul-15@
21:00 UTC

Jul-15 @ 21:00 UTC

TEMPO 1518/1521 2SM RA

Expired

Conditions
Rain
Cloud Levels

Jul-16@
00:00 UTC

Jul-16 @ 00:00 UTC

Jul-16@
15:00 UTC

Jul-16 @ 15:00 UTC

FM160000 09006KT 4SM -RA BR SCT005 OVC010

Expired

Wind
  • 090° at 6 KTS
Conditions
Light Rain, Mist
Cloud Levels
  • Scattered at 500' AGL
  • Overcast at 1,000' AGL

Jul-16@
15:00 UTC

Jul-16 @ 15:00 UTC

Jul-16@
18:00 UTC

Jul-16 @ 18:00 UTC

FM161500 VRB02KT 6SM -RA OVC020 AMD LTD TO CLD VIS AND WIND 1606/1615

From

From Standard forecast or significant change

Wind
  • Variable at 2 KTS
Conditions
Light Rain
Cloud Levels
  • Overcast at 2,000' AGL